^^
Datos históricos de la estación: Murcia-Puente Tocinos
Diario Informe para Septiembre 21, 2021 Unidades:  Ingés    Métrico   Ambas
Diario Semanal Mensual Anual
  Máxima: Mínima: Promedio:
Temperatura: 78.4 °F 63 °F 70.9 °F
Punto de rocio: 65.5 °F 55.8 °F 61 °F
Humedad: 92% 47.1% 72%
Velocidad viento: 15.2mph 1.4mph 5.8mph
Racha viento: 38mph - -
Viento- - ESE
Presión: 30.1 in 30 in -
Precipitación: 0.72 in    
 
 
Tabla de datos para Septiembre 21, 2021
Hora Temperatura Punto de rocio Presión Viento Velocidad viento Racha viento Humedad Intensidad lluvia(por hora) Nubes
00:04 73.2 °F 64.8 °F 30 in NNE 3.6 mph 4.7 mph 75% 0 in
00:09 73.2 °F 65.1 °F 30 in NE 3.4 mph 6.9 mph 75.8% 0 in
00:14 73.2 °F 65.1 °F 30 in NNE 3.1 mph 5.9 mph 76% 0 in
00:19 73.2 °F 65.1 °F 30 in North 3.1 mph 4.7 mph 76% 0 in
00:24 73.2 °F 65.1 °F 30 in NNO 3.1 mph 4.7 mph 76% 0 in
00:29 73.2 °F 65.1 °F 30 in NO 3 mph 5.8 mph 76% 0 in
00:34 73.2 °F 65.3 °F 30 in NNO 2.9 mph 5.9 mph 76% 0 in
00:39 73.2 °F 65.1 °F 30 in NNO 3.2 mph 5.8 mph 76% 0 in
00:44 73.2 °F 65.1 °F 30 in North 3.6 mph 5.9 mph 76% 0 in
00:49 73.2 °F 65.1 °F 30 in NNE 3.4 mph 7.4 mph 76% 0 in
00:54 73 °F 65.3 °F 30 in NE 3.1 mph 6.9 mph 76.5% 0 in
00:59 73 °F 65.5 °F 30 in NE 4 mph 10.7 mph 77.2% 0 in
01:04 72.7 °F 65.5 °F 30 in NE 5.2 mph 10.7 mph 78% 0 in
01:09 72.5 °F 65.3 °F 30 in NE 5.5 mph 8.1 mph 78% 0 in
01:14 72.3 °F 65.1 °F 30 in NE 5.9 mph 9.2 mph 78% 0 in
01:19 72.1 °F 64.9 °F 30 in NE 5.5 mph 8.5 mph 78% 0 in
01:24 72 °F 64.8 °F 30 in NE 4.7 mph 8.1 mph 78% 0 in
01:29 72 °F 64.8 °F 30 in NE 5 mph 8.1 mph 78.2% 0 in
01:34 71.8 °F 64.9 °F 30 in NE 5.4 mph 6.9 mph 79% 0 in
01:39 71.8 °F 64.9 °F 30 in Este 4.7 mph 6.2 mph 79% 0 in
01:44 71.8 °F 64.9 °F 30 in Este 3.6 mph 7.4 mph 79% 0 in
01:49 71.8 °F 64.9 °F 30 in ENE 3.7 mph 6.9 mph 79% 0 in
01:54 71.8 °F 64.9 °F 30 in ESE 4 mph 5.2 mph 79% 0 in
01:59 71.8 °F 64.9 °F 30 in Este 3.6 mph 5.2 mph 79% 0 in
02:04 71.8 °F 64.8 °F 30 in NE 3.1 mph 4.7 mph 78.8% 0 in
02:09 71.8 °F 64.6 °F 30 in North 3 mph 4.7 mph 78% 0 in
02:14 71.8 °F 64.6 °F 30 in NNE 2.9 mph 6.4 mph 78.2% 0 in
02:19 71.8 °F 64.9 °F 30 in NE 3.2 mph 6.9 mph 79% 0 in
02:24 71.8 °F 64.8 °F 30 in NNE 3.6 mph 7.4 mph 79% 0 in
02:29 71.6 °F 64.8 °F 30 in NNE 4 mph 6.9 mph 79% 0 in
02:34 71.6 °F 64.8 °F 30 in NNE 4.7 mph 8.1 mph 79% 0 in
02:39 71.6 °F 64.8 °F 30 in NE 5 mph 9.2 mph 79% 0 in
02:44 71.6 °F 64.8 °F 30 in NE 5.4 mph 11.5 mph 79% 0 in
02:49 71.8 °F 64.9 °F 30 in NE 6 mph 13.8 mph 79% 0 in
02:54 71.8 °F 64.9 °F 30 in NE 6.9 mph 16.1 mph 79.1% 0 in
02:59 71.6 °F 65.1 °F 30 in NE 7.8 mph 16.1 mph 80% 0 in
03:04 71.4 °F 65.1 °F 30 in NE 9.2 mph 14.5 mph 80.7% 0 in
03:09 71.2 °F 65.1 °F 30 in NE 9 mph 15 mph 81% 0 in
03:14 71.2 °F 65.1 °F 30 in NE 8.7 mph 17.3 mph 81% 0 in
03:19 71.2 °F 64.9 °F 30 in NE 9.4 mph 18.4 mph 80.4% 0 in
03:24 71.2 °F 64.4 °F 30 in NE 10.7 mph 19.6 mph 79.2% 0 in
03:29 71.2 °F 63.9 °F 30 in NE 10.9 mph 16.1 mph 77.4% 0 in
03:34 71.2 °F 63.5 °F 30 in NE 11.2 mph 23 mph 76.3% 0 in
03:39 71.1 °F 63.5 °F 30 in NE 11.4 mph 18.4 mph 77.2% 0 in
03:44 70.9 °F 63.7 °F 30 in NE 11.8 mph 17.5 mph 78% 0 in
03:49 70.7 °F 63.7 °F 30 in NE 11.1 mph 17.3 mph 78.3% 0 in
03:54 70.7 °F 63.5 °F 30 in NE 10 mph 21.9 mph 78% 0 in
03:59 70.9 °F 63.7 °F 30 in NE 11.2 mph 24.6 mph 78% 0.01 in
04:04 70.5 °F 63.5 °F 30 in NE 13 mph 24.8 mph 78.5% 0.01 in
04:09 70.2 °F 63.7 °F 30 in NE 13.2 mph 25.3 mph 79.6% 0.03 in
04:14 70 °F 63.9 °F 30 in NE 13.5 mph 13.8 mph 81% 0.04 in
04:19 69.6 °F 63.9 °F 30 in NE 11.9 mph 14.7 mph 82% 0.05 in
04:24 69.4 °F 64 °F 30 in NE 9.2 mph 15 mph 82.9% 0.05 in
04:29 69.4 °F 64.2 °F 30 in NE 8.9 mph 13.5 mph 83.8% 0.06 in
04:34 69.3 °F 64.2 °F 30 in NE 8.5 mph 14.5 mph 84.2% 0.07 in
04:39 69.3 °F 64.6 °F 30 in NE 8.8 mph 21.9 mph 84.8% 0.07 in
04:44 69.3 °F 63.9 °F 30 in NE 9.2 mph 24.6 mph 83.2% 0.07 in
04:49 69.3 °F 63.9 °F 30 in NE 10.6 mph 21.9 mph 83% 0.07 in
04:54 69.3 °F 63.9 °F 30 in NE 13 mph 21.9 mph 83% 0.07 in
04:59 69.4 °F 64 °F 30 in NE 12.7 mph 20.7 mph 83% 0.07 in
05:04 69.4 °F 63.9 °F 30 in NE 12.3 mph 19.7 mph 82.7% 0.06 in
05:09 69.4 °F 63.7 °F 30 in NNE 12.4 mph 23 mph 82% 0.05 in
05:14 69.4 °F 63.3 °F 30 in NE 12.5 mph 24.8 mph 81% 0.04 in
05:19 69.6 °F 63.1 °F 30 in NE 12.7 mph 25.3 mph 80.2% 0.03 in
05:24 69.6 °F 63 °F 30 in NE 13 mph 26.5 mph 79.3% 0.02 in
05:29 69.6 °F 62.6 °F 30 in NE 13.8 mph 25.6 mph 78.6% 0.01 in
05:34 69.6 °F 62.4 °F 30 in NE 15.2 mph 27.6 mph 77.4% 0.01 in
05:39 69.8 °F 62.2 °F 30 in NE 14.2 mph 19 mph 77% 0 in
05:44 69.6 °F 61.9 °F 30 in NE 12.5 mph 21.9 mph 76.4% 0 in
05:49 69.6 °F 61.5 °F 30 in NE 12.1 mph 19.6 mph 75.7% 0 in
05:54 69.4 °F 61.3 °F 30 in NNO 11.4 mph 19.7 mph 75.1% 0 in
05:59 69.3 °F 61.5 °F 30 in ONO 11.1 mph 23 mph 76.1% 0 in
06:04 67.5 °F 61 °F 30.1 in NO 10.7 mph 38 mph 80% 0.34 in
06:09 65.8 °F 61 °F 30.1 in NE 12.2 mph 19 mph 84.7% 0.56 in
06:14 65.1 °F 61.2 °F 30.1 in NNO 14.5 mph 16.1 mph 86.9% 0.59 in
06:19 64.8 °F 61.2 °F 30.1 in NNO 11.6 mph 12.7 mph 88% 0.59 in
06:24 64.8 °F 61.3 °F 30 in North 6.9 mph 8.1 mph 89% 0.59 in
06:29 64.6 °F 61.5 °F 30 in North 5.7 mph 8.5 mph 90% 0.59 in
06:34 64.2 °F 61.3 °F 30 in NNE 3.6 mph 11.8 mph 90.2% 0.59 in
06:39 64.2 °F 61.5 °F 30 in NNE 4.7 mph 12.7 mph 91% 0.59 in
06:44 64.2 °F 61.5 °F 30 in NNE 6.4 mph 9.7 mph 91% 0.59 in
06:49 64.2 °F 61.5 °F 30 in NNE 6 mph 9.7 mph 91% 0.59 in
06:54 64 °F 61.5 °F 30 in NNE 5.4 mph 9.2 mph 91.2% 0.59 in
06:59 64.2 °F 61.7 °F 30 in North 5.3 mph 8.1 mph 91.8% 0.59 in
07:04 64.2 °F 61.9 °F 30.1 in North 5.2 mph 9.2 mph 92% 0.58 in
07:09 64.2 °F 61.7 °F 30.1 in NNE 5 mph 9.2 mph 92% 0.18 in
07:14 64 °F 61.7 °F 30.1 in NNE 4.7 mph 5.8 mph 92% 0.02 in
07:19 64 °F 61.7 °F 30.1 in NNE 4.3 mph 7.6 mph 92% 0 in
07:24 64 °F 61.7 °F 30.1 in NNE 3.6 mph 8.1 mph 92% 0 in
07:29 64 °F 61.7 °F 30.1 in North 3.9 mph 6.9 mph 92% 0 in
07:34 64 °F 61.7 °F 30.1 in NNO 4.3 mph 5.2 mph 92% 0 in
07:39 64 °F 61.7 °F 30.1 in NO 3.8 mph 4.6 mph 92% 0 in
07:44 64 °F 61.7 °F 30.1 in NO 2.9 mph 4.6 mph 92% 0 in
07:49 63.5 °F 61 °F 30.1 in NE 2.5 mph 5.2 mph 91.2% 0 in
07:54 63.1 °F 60.8 °F 30.1 in NE 1.8 mph 2.9 mph 91.7% 0 in
07:59 63.1 °F 60.8 °F 30.1 in NE 1.8 mph 3.5 mph 92% 0 in
08:04 63.1 °F 60.8 °F 30.1 in ENE 1.8 mph 3.5 mph 92% 0 in
08:09 63.1 °F 60.8 °F 30.1 in Este 1.9 mph 4.7 mph 91.7% 0.01 in
08:14 63.1 °F 60.6 °F 30.1 in ESE 2 mph 3.6 mph 91.6% 0.01 in
08:19 63 °F 60.3 °F 30.1 in ESE 2.2 mph 3.5 mph 91% 0.01 in
08:24 63 °F 60.3 °F 30.1 in SE 2.4 mph 4.6 mph 91% 0.01 in
08:29 63.1 °F 60.6 °F 30.1 in SSO 2.2 mph 3.6 mph 91.8% 0.01 in
08:34 63.3 °F 61 °F 30.1 in SO 1.8 mph 4.6 mph 92% 0.01 in
08:39 63.7 °F 61.2 °F 30.1 in SO 1.9 mph 4.6 mph 91.3% 0.01 in
08:44 63.9 °F 61.2 °F 30.1 in SO 2 mph 4.6 mph 91% 0.01 in
08:49 63.9 °F 61.2 °F 30.1 in Sur 2.4 mph 5.4 mph 91% 0.01 in
08:54 64 °F 61.3 °F 30.1 in SSE 2.9 mph 6.2 mph 90.9% 0.01 in
08:59 64.2 °F 61.2 °F 30.1 in SSE 3.5 mph 7.4 mph 90% 0.01 in
09:04 64.2 °F 61 °F 30.1 in SSE 4.3 mph 8.1 mph 89% 0.01 in
09:09 64.2 °F 60.6 °F 30.1 in Sur 4.3 mph 5.8 mph 88.3% 0.01 in
09:14 64 °F 60.4 °F 30.1 in Sur 4.3 mph 4.7 mph 88% 0 in
09:19 64.4 °F 60.8 °F 30.1 in SE 3.8 mph 4.6 mph 88% 0 in
09:24 64.8 °F 61 °F 30.1 in SSE 2.9 mph 3.6 mph 88% 0 in
09:29 64.9 °F 61.3 °F 30.1 in SSE 2.5 mph 4 mph 88% 0 in
09:34 65.1 °F 61.5 °F 30.1 in SSE 1.8 mph 4.6 mph 88% 0 in
09:39 65.5 °F 61.7 °F 30.1 in SSE 2 mph 4.6 mph 87.9% 0 in
09:44 65.5 °F 61.3 °F 30.1 in OSO 2.4 mph 6.2 mph 86.2% 0 in
09:49 65.7 °F 60.8 °F 30.1 in SO 3 mph 8.1 mph 84.5% 0 in
09:54 65.8 °F 60.6 °F 30.1 in SO 4 mph 8.1 mph 83.3% 0 in
09:59 66 °F 60.8 °F 30.1 in OSO 4.1 mph 5.9 mph 83% 0 in
10:04 66.4 °F 61.2 °F 30.1 in Oeste 4.3 mph 5.9 mph 83% 0 in
10:09 66.9 °F 61.5 °F 30.1 in SO 3.9 mph 6.4 mph 83% 0 in
10:14 67.3 °F 61.5 °F 30.1 in Oeste 3.1 mph 6.9 mph 81.9% 0 in
10:19 67.5 °F 61.7 °F 30.1 in NO 3.3 mph 5.8 mph 82% 0 in
10:24 67.6 °F 61 °F 30.1 in NO 3.6 mph 8.5 mph 79.5% 0 in
10:29 67.8 °F 60.3 °F 30.1 in NO 3.7 mph 8.1 mph 77% 0 in
10:34 68.2 °F 60.1 °F 30.1 in Oeste 4 mph 8.1 mph 75.3% 0 in
10:39 68.2 °F 59.7 °F 30.1 in Oeste 4.1 mph 6.9 mph 74.4% 0 in
10:44 68.4 °F 59.5 °F 30.1 in Oeste 4.3 mph 6.2 mph 73.6% 0 in
10:49 68.5 °F 59.9 °F 30.1 in OSO 3.8 mph 5.8 mph 74% 0 in
10:54 68.7 °F 60.1 °F 30.1 in SO 2.9 mph 4.6 mph 73.8% 0 in
10:59 69.3 °F 60.4 °F 30.1 in SO 2.7 mph 4.7 mph 73.9% 0 in
11:04 69.4 °F 59.7 °F 30.1 in SSO 2.4 mph 4.7 mph 71.4% 0 in
11:09 69.4 °F 59.9 °F 30.1 in SO 2.5 mph 4.7 mph 71.5% 0 in
11:14 69.6 °F 60.1 °F 30.1 in SSO 2.9 mph 4.6 mph 71.7% 0 in
11:19 70 °F 60.1 °F 30.1 in OSO 2.7 mph 3.6 mph 70.9% 0 in
11:24 70.2 °F 60.1 °F 30.1 in ONO 2.4 mph 5.9 mph 70.5% 0 in
11:29 70.2 °F 60.3 °F 30.1 in NO 2.9 mph 9.7 mph 70.8% 0 in
11:34 70.2 °F 59.2 °F 30.1 in NNO 3.6 mph 13.8 mph 68.1% 0 in
11:39 70.3 °F 58.5 °F 30.1 in ONO 5.1 mph 15.2 mph 66.3% 0 in
11:44 70.3 °F 58.8 °F 30.1 in NO 7.6 mph 9.2 mph 66.8% 0 in
11:49 70.7 °F 58.3 °F 30.1 in ONO 6.6 mph 10.7 mph 64.7% 0 in
11:54 70.7 °F 57.4 °F 30.1 in ONO 5.2 mph 9.7 mph 62.6% 0 in
11:59 70.9 °F 57.2 °F 30.1 in Oeste 5.3 mph 8.1 mph 62% 0 in
12:04 71.2 °F 57.4 °F 30.1 in OSO 5.4 mph 9.2 mph 61.8% 0 in
12:09 71.4 °F 57.2 °F 30.1 in OSO 5.2 mph 9.2 mph 61% 0 in
12:14 71.8 °F 56.8 °F 30.1 in Oeste 4.7 mph 7.4 mph 59.6% 0 in
12:19 72 °F 57 °F 30.1 in NO 4.3 mph 5.4 mph 59.8% 0 in
12:24 72.1 °F 57 °F 30.1 in OSO 3.6 mph 9.2 mph 59% 0 in
12:29 72.3 °F 56.8 °F 30.1 in Oeste 4.2 mph 8.1 mph 58.5% 0 in
12:34 72.1 °F 57 °F 30.1 in NO 5.2 mph 6.9 mph 59% 0 in
12:39 72.3 °F 57.2 °F 30.1 in Oeste 4.6 mph 9.2 mph 59% 0 in
12:44 72.7 °F 57 °F 30.1 in NO 3.6 mph 6.9 mph 58.2% 0 in
12:49 73 °F 57.4 °F 30.1 in NE 3.4 mph 6.2 mph 58.1% 0 in
12:54 73.6 °F 57.4 °F 30.1 in NE 2.9 mph 9.2 mph 56.9% 0 in
12:59 73.6 °F 57.2 °F 30.1 in NNE 3.4 mph 9.2 mph 56.8% 0 in
13:04 73.8 °F 57.4 °F 30.1 in NNO 4 mph 8.1 mph 56.7% 0 in
13:09 73.9 °F 57 °F 30.1 in Este 3.9 mph 6.9 mph 55.5% 0 in
13:14 73.9 °F 56.8 °F 30.1 in ENE 3.6 mph 8.5 mph 55.4% 0 in
13:19 73.8 °F 57.2 °F 30.1 in NO 4.1 mph 7.4 mph 56.1% 0 in
13:24 73.8 °F 57.4 °F 30.1 in North 5.2 mph 9.2 mph 56.5% 0 in
13:29 74.3 °F 57.7 °F 30.1 in NE 5 mph 9.7 mph 56.4% 0 in
13:34 74.1 °F 57.2 °F 30.1 in ENE 4.7 mph 8.1 mph 55.6% 0 in
13:39 73.9 °F 57.6 °F 30.1 in ESE 4.7 mph 7.6 mph 56.4% 0 in
13:44 74.1 °F 57.7 °F 30.1 in ONO 4.7 mph 9.2 mph 56.6% 0 in
13:49 74.5 °F 58.1 °F 30.1 in North 4.9 mph 9.2 mph 56.9% 0 in
13:54 74.8 °F 58.1 °F 30.1 in NO 5.2 mph 9.2 mph 56% 0 in
13:59 75 °F 58.3 °F 30.1 in NNE 5 mph 9.2 mph 55.8% 0 in
14:04 74.8 °F 58.1 °F 30.1 in North 4.7 mph 8.1 mph 56% 0 in
14:09 74.8 °F 58.3 °F 30.1 in ENE 4.5 mph 8.1 mph 56.2% 0 in
14:14 75.2 °F 58.5 °F 30.1 in NNE 4.3 mph 9.7 mph 56% 0 in
14:19 75.4 °F 58.1 °F 30.1 in NE 4.2 mph 9.2 mph 55.2% 0 in
14:24 75.6 °F 58.3 °F 30.1 in NNO 4 mph 6.2 mph 55% 0 in
14:29 75.4 °F 58.3 °F 30.1 in NE 3.9 mph 6.9 mph 55.3% 0 in
14:34 75.7 °F 58.6 °F 30.1 in ENE 3.6 mph 5.9 mph 55.5% 0 in
14:39 76.3 °F 59 °F 30.1 in ENE 3.4 mph 5.9 mph 55.2% 0 in
14:44 76.3 °F 57.9 °F 30.1 in ENE 2.9 mph 11.5 mph 53.1% 0 in
14:49 75.9 °F 57.9 °F 30.1 in ENE 4 mph 11.5 mph 53.5% 0 in
14:54 76.3 °F 58.5 °F 30.1 in NE 5.9 mph 8.5 mph 54.1% 0 in
14:59 76.3 °F 57.9 °F 30.1 in NNE 5.4 mph 10.4 mph 53.1% 0 in
15:04 76.1 °F 57.9 °F 30.1 in NO 4.7 mph 7.4 mph 53.6% 0 in
15:09 76.3 °F 58.3 °F 30 in SE 4.1 mph 9.2 mph 53.7% 0 in
15:14 76.6 °F 57.6 °F 30 in North 3.1 mph 11.5 mph 51.6% 0 in
15:19 76.5 °F 57 °F 30 in NNE 4.2 mph 10.4 mph 51% 0 in
15:24 75.9 °F 56.8 °F 30 in ENE 5.9 mph 6.9 mph 51.5% 0 in
15:29 75.9 °F 56.8 °F 30 in NE 5.2 mph 9.2 mph 51.6% 0 in
15:34 76.3 °F 57.2 °F 30 in Este 4 mph 8.1 mph 51.9% 0 in
15:39 76.6 °F 57.2 °F 30 in ESE 4 mph 6.9 mph 51.1% 0 in
15:44 77.2 °F 57.6 °F 30 in ENE 4 mph 9.7 mph 50.9% 0 in
15:49 77.4 °F 57.4 °F 30 in NNO 4.3 mph 9.2 mph 50.2% 0 in
15:54 77.4 °F 57 °F 30 in NO 4.7 mph 9.2 mph 49.5% 0 in
15:59 77.5 °F 57 °F 30 in NE 4.2 mph 10.7 mph 49.3% 0 in
16:04 77.4 °F 56.1 °F 30 in Este 3.6 mph 9.2 mph 48% 0 in
16:09 77.2 °F 56.3 °F 30 in NNE 4.2 mph 9.2 mph 48.5% 0 in
16:14 77.5 °F 55.9 °F 30 in NNE 5.2 mph 9.2 mph 47.6% 0 in
16:19 77.5 °F 55.8 °F 30 in ENE 4.7 mph 8.1 mph 47.1% 0 in
16:24 77.7 °F 56.1 °F 30 in North 4 mph 10 mph 47.4% 0 in
16:29 78.3 °F 56.8 °F 30 in NNE 4.3 mph 13.8 mph 47.8% 0 in
16:34 78.4 °F 56.8 °F 30 in NE 4.7 mph 10.4 mph 47.7% 0 in
16:39 77.9 °F 57.7 °F 30 in ENE 5.3 mph 13.8 mph 49.9% 0 in
16:44 77.4 °F 58.3 °F 30 in ENE 6.2 mph 12.7 mph 51.7% 0 in
16:49 77.2 °F 58.3 °F 30 in NE 6.5 mph 15 mph 52% 0 in
16:54 76.8 °F 57.9 °F 30 in ENE 6.9 mph 12.7 mph 52% 0 in
16:59 76.8 °F 58.1 °F 30 in ENE 7.2 mph 13.8 mph 52.3% 0 in
17:04 77 °F 58.5 °F 30 in ENE 7.6 mph 10.7 mph 52.7% 0 in
17:09 77.2 °F 58.6 °F 30 in NE 6.8 mph 9.2 mph 52.8% 0 in
17:14 77.2 °F 58.6 °F 30 in ENE 5.4 mph 14 mph 53% 0 in
17:19 76.8 °F 58.3 °F 30 in NE 6.5 mph 13.8 mph 52.6% 0 in
17:24 76.6 °F 58.3 °F 30 in NE 8.1 mph 15.9 mph 53% 0 in
17:29 76.6 °F 58.6 °F 30 in ENE 8.1 mph 16.1 mph 53.8% 0 in
17:34 76.6 °F 59.4 °F 30 in NE 8.1 mph 15.2 mph 55.2% 0 in
17:39 76.6 °F 59.5 °F 30 in ENE 7.6 mph 15 mph 55.4% 0 in
17:44 76.5 °F 59.5 °F 30 in ENE 6.9 mph 15 mph 56.1% 0 in
17:49 75.9 °F 59.5 °F 30 in NE 7.4 mph 17.3 mph 57% 0 in
17:54 75.7 °F 59.7 °F 30 in NE 8.1 mph 15.9 mph 57.8% 0 in
17:59 75.6 °F 59.7 °F 30 in NE 8.4 mph 16.1 mph 58% 0 in
18:04 75.6 °F 59.7 °F 30 in ENE 8.7 mph 19 mph 58% 0 in
18:09 75.2 °F 59.9 °F 30 in NE 8.7 mph 15 mph 58.8% 0 in
18:14 75 °F 59.9 °F 30 in NE 8.7 mph 18.1 mph 59.6% 0 in
18:19 74.8 °F 60.3 °F 30 in NE 9.4 mph 18.4 mph 60.9% 0 in
18:24 74.7 °F 60.6 °F 30 in ENE 10.7 mph 11.5 mph 61.5% 0 in
18:29 74.7 °F 60.4 °F 30 in NE 9.5 mph 18.4 mph 61.3% 0 in
18:34 74.5 °F 60.8 °F 30 in NE 7.6 mph 15 mph 62.3% 0 in
18:39 74.3 °F 61.3 °F 30 in NE 8.2 mph 18.4 mph 64% 0 in
18:44 73.8 °F 61.2 °F 30 in NE 9.2 mph 19.7 mph 64.8% 0 in
18:49 73.4 °F 60.8 °F 30 in NE 10.1 mph 19.7 mph 64.9% 0 in
18:54 73 °F 60.6 °F 30 in NE 11.4 mph 19.6 mph 65% 0 in
18:59 73 °F 60.6 °F 30 in NE 10.9 mph 18.4 mph 65% 0 in
19:04 73 °F 60.8 °F 30 in NE 10.2 mph 15.2 mph 65.6% 0 in
19:09 72.9 °F 60.8 °F 30 in NE 9.4 mph 17.3 mph 66% 0 in
19:14 72.7 °F 60.8 °F 30 in NE 8.1 mph 16.3 mph 66% 0 in
19:19 72.7 °F 60.6 °F 30 in NE 8.5 mph 16.1 mph 66% 0 in
19:24 72.7 °F 60.8 °F 30 in NE 9.2 mph 13.8 mph 66.3% 0 in
19:29 72.7 °F 61.2 °F 30 in NE 8.5 mph 12.7 mph 67% 0 in
19:34 72.7 °F 61 °F 30 in NE 7.4 mph 18.4 mph 67% 0 in
19:39 72.3 °F 60.8 °F 30 in NE 7.9 mph 13.8 mph 67% 0 in
19:44 72.3 °F 60.6 °F 30 in NE 8.7 mph 10.7 mph 67% 0 in
19:49 72.3 °F 60.4 °F 30 in NE 8.1 mph 12.7 mph 66.4% 0 in
19:54 72.3 °F 60.6 °F 30 in NE 7.4 mph 12.3 mph 67% 0 in
19:59 72.1 °F 60.4 °F 30 in NE 7.2 mph 13.8 mph 66.4% 0 in
20:04 72.1 °F 60.3 °F 30 in NE 6.9 mph 15 mph 66% 0 in
20:09 72.1 °F 60.3 °F 30 in NE 7.3 mph 13.8 mph 66.3% 0 in
20:14 72 °F 60.4 °F 30 in NE 8.1 mph 13 mph 66.9% 0 in
20:19 72 °F 60.4 °F 30.1 in NE 7.3 mph 11.5 mph 67% 0 in
20:24 72 °F 60.3 °F 30.1 in NE 6.2 mph 14 mph 67% 0 in
20:27 71.8 °F 59.9 °F 30.1 in NE 6.2 mph 15 mph 66.3% 0 in
20:34 71.8 °F 60.1 °F 30.1 in NE 7.6 mph 13.7 mph 66.5% 0 in
20:39 71.8 °F 60.1 °F 30.1 in NE 8 mph 15.2 mph 66.9% 0 in
20:44 71.8 °F 60.3 °F 30.1 in NE 8.7 mph 12.7 mph 67% 0 in
20:49 71.8 °F 60.1 °F 30.1 in NE 8.3 mph 11.5 mph 67% 0 in
20:54 71.6 °F 60.1 °F 30.1 in NE 7.4 mph 12.3 mph 67.1% 0 in
20:59 71.4 °F 60.4 °F 30.1 in NE 7.4 mph 16.1 mph 68% 0 in
21:04 71.4 °F 60.4 °F 30.1 in NE 7.4 mph 15 mph 68.3% 0 in
21:09 71.4 °F 60.6 °F 30.1 in NE 7.7 mph 13.8 mph 69% 0 in
21:14 71.2 °F 60.6 °F 30.1 in NE 8.5 mph 11.5 mph 69.2% 0 in
21:19 71.2 °F 61 °F 30.1 in NE 8 mph 10.4 mph 70% 0 in
21:24 71.2 °F 61 °F 30.1 in NE 6.9 mph 13 mph 70% 0 in
21:29 71.1 °F 61.2 °F 30.1 in NE 6.9 mph 12.7 mph 70.8% 0 in
21:34 71.1 °F 61.2 °F 30.1 in NE 6.9 mph 12.7 mph 71% 0 in
21:39 71.1 °F 61.2 °F 30.1 in NNE 6.7 mph 10.4 mph 71% 0 in
21:44 71.1 °F 61.2 °F 30.1 in NNE 6.2 mph 9.2 mph 71% 0 in
21:49 71.1 °F 61.3 °F 30.1 in NNE 5.6 mph 8.1 mph 71.5% 0 in
21:54 71.1 °F 61.7 °F 30.1 in NNE 4.3 mph 6.4 mph 72% 0 in
21:59 71.1 °F 61.5 °F 30.1 in North 4 mph 8.1 mph 71.8% 0 in
22:04 71.1 °F 61.5 °F 30.1 in NO 3.6 mph 6.9 mph 72% 0 in
22:09 71.1 °F 61.5 °F 30.1 in NO 3.6 mph 6.9 mph 72% 0 in
22:14 71.1 °F 61.9 °F 30.1 in Oeste 3.6 mph 8.5 mph 72.8% 0 in
22:19 70.9 °F 62.2 °F 30.1 in ONO 4 mph 8.1 mph 74.1% 0 in
22:24 70.5 °F 62.2 °F 30.1 in ONO 4.7 mph 8.1 mph 75.4% 0 in
22:29 70.2 °F 62.4 °F 30.1 in NO 4.7 mph 8.1 mph 76.5% 0 in
22:34 69.8 °F 62.6 °F 30.1 in NO 4.7 mph 6.9 mph 77.8% 0.01 in
22:39 69.4 °F 62.4 °F 30.1 in NO 4.5 mph 6.2 mph 78.8% 0.01 in
22:44 69.1 °F 62.4 °F 30.1 in ONO 4 mph 5.8 mph 79.6% 0.02 in
22:49 68.7 °F 62.4 °F 30.1 in ONO 3.7 mph 4.7 mph 80.4% 0.02 in
22:54 68.5 °F 62.4 °F 30.1 in NO 3.1 mph 3.5 mph 81.2% 0.02 in
22:59 68.4 °F 62.2 °F 30.1 in NO 2.5 mph   81.2% 0.03 in
23:04 68.2 °F 62.4 °F 30.1 in NO 1.4 mph 4.6 mph 82.1% 0.03 in
23:09 68 °F 62.8 °F 30.1 in SSE 1.7 mph 9.2 mph 83.4% 0.03 in
23:14 67.8 °F 62.8 °F 30.1 in SE 2.4 mph 6.9 mph 84.1% 0.03 in
23:19 67.6 °F 63 °F 30.1 in SE 2.9 mph 6.2 mph 85% 0.03 in
23:24 67.6 °F 63.1 °F 30.1 in SE 4 mph 5.9 mph 85.6% 0.03 in
23:29 67.6 °F 63.3 °F 30.1 in SSE 3.7 mph 4.6 mph 86% 0.03 in
23:34 67.5 °F 63.1 °F 30.1 in ESE 3.1 mph 3.5 mph 86% 0.03 in
23:39 67.5 °F 63.1 °F 30.1 in ESE 2.6 mph 3.6 mph 86% 0.02 in
23:44 67.5 °F 63 °F 30.1 in Este 1.4 mph 3.5 mph 86% 0.02 in
23:49 67.5 °F 63.1 °F 30.1 in NE 1.6 mph 5.8 mph 86% 0.01 in
23:54 67.6 °F 63.5 °F 30.1 in ONO 1.8 mph 6.4 mph 86.8% 0.02 in
23:59 67.5 °F 63.5 °F 30.1 in Oeste 2.7 mph 8.1 mph 87% 0.02 in
Murcia-Puente Tocinos, España
Compliments of Weather Underground - 3 mb

La estación de MeteoMurcia.com, publica sus datos en los siguientes proyectos:

Weather Underground PWS IMURCIAP2 Meteoclimatic www.awekas.at

W3Counter
Web Analytics